Aérodrome :







RETROUVEZ-NOUS SUR...

 
LOGIN :

S'inscrire | Disclaimer

   EN    FR    IT 

 









Légende :    VFR   VFR Marginal   IFR   IFR Intensif   IFR Très Intensif
Visi : 
Plafond : 
>= 8 km
>= 3000ft
5 à 8 km
1000 à 3000 ft
1500m à 5 km
500 à 1000 ft
800 à 1500m
200 à 500 ft
< 800m
< 200 ft
Symboles :   Orages  Brouillard  Fortes neiges  Fortes précipitations  Vent > 20 kt






- Altitude de l'aérodrome : 234 ft
- Code IATA : PBG


KPBG - Plattsburgh International

DERNIER METAR :
  • 100653Z AUTO 17008KT 10SM BKN041 OVC055 08/06 A2947 RMK AO2 SLP979 T00780061

METARs EXPIRÉS :
  • 100553Z AUTO 16013KT 10SM OVC037 08/06 A2946 RMK AO2 SLP977 60000 T00780061 10078 20061 58007
  • 100453Z AUTO 17007KT 10SM OVC039 08/06 A2948 RMK AO2 SLP984 T00780061 400780011

TAF KPBG
Valide du 10 à 06h jusqu'au 11 à 06h UTC


100537Z 1006/1106 17008KT P6SM VCSH BKN035 WS020/23040KT
FM101300 18010KT P6SM BKN035 WS020/24035KT
FM101500 22010G20KT P6SM BKN035
FM110000 28008G16KT P6SM BKN045



MET'MAP, la Météo Aéronautique d'un coup d'oeil ! - Copyright ORBIFLY Décembre 2007 - Disclaimer

ORBIFLY MET'MAP TEAM :

Programmation & Développement : Alexandra Zaïnal
Sur une idée originale de : Baudouin d'Aumeries
Assistance à la programmation : Marc-Olivier Méhu
Soutien technique & logistique : Manuel Goepfert

Contact : metmap@orbifly.com




SOURCES & CREDITS :

   NOAA